createdAt,value
2018-04-13T00:00:48.995Z,997.78
2018-04-13T00:01:48.977Z,997.78
2018-04-13T00:02:51.652Z,997.77
2018-04-13T00:03:48.927Z,997.79
2018-04-13T00:04:48.898Z,997.77
2018-04-13T00:05:48.868Z,997.77
2018-04-13T00:06:48.845Z,997.83
2018-04-13T00:07:48.851Z,997.83
2018-04-13T00:08:48.787Z,997.86
2018-04-13T00:09:48.761Z,997.84
2018-04-13T00:10:48.729Z,997.88
2018-04-13T00:11:48.730Z,997.87
2018-04-13T00:12:48.673Z,997.89
2018-04-13T00:13:48.638Z,997.89
2018-04-13T00:14:48.616Z,997.90
2018-04-13T00:15:48.583Z,997.89
2018-04-13T00:16:48.560Z,997.93
2018-04-13T00:17:50.170Z,997.93
2018-04-13T00:18:48.503Z,997.87
2018-04-13T00:19:48.483Z,997.88
2018-04-13T00:20:48.453Z,997.92
2018-04-13T00:21:48.429Z,997.91
2018-04-13T00:22:48.394Z,997.90
2018-04-13T00:23:48.364Z,997.90
2018-04-13T00:24:48.345Z,997.90
2018-04-13T00:25:48.321Z,997.93
2018-04-13T00:26:48.279Z,997.92
2018-04-13T00:27:48.255Z,997.93
2018-04-13T00:28:48.253Z,997.95
2018-04-13T00:29:48.205Z,997.98
2018-04-13T00:30:48.671Z,997.94
2018-04-13T00:31:48.143Z,998.02
2018-04-13T00:32:48.122Z,998.00
2018-04-13T00:33:48.087Z,998.01
2018-04-13T00:34:48.054Z,997.99
2018-04-13T00:35:48.042Z,998.01
2018-04-13T00:36:48.022Z,998.03
2018-04-13T00:37:47.981Z,998.03
2018-04-13T00:38:47.953Z,998.02
2018-04-13T00:39:47.936Z,998.05
2018-04-13T00:40:47.903Z,998.08
2018-04-13T00:41:47.915Z,998.03
2018-04-13T00:42:47.837Z,998.04
2018-04-13T00:43:47.833Z,998.01
2018-04-13T00:44:47.776Z,997.98
2018-04-13T00:45:47.752Z,998.00
2018-04-13T00:46:47.822Z,997.96
2018-04-13T00:47:47.691Z,997.99
2018-04-13T00:48:47.667Z,998.01
2018-04-13T00:49:47.672Z,997.97
2018-04-13T00:50:47.622Z,997.99
2018-04-13T00:51:47.598Z,997.98
2018-04-13T00:52:47.591Z,998.00
2018-04-13T00:53:47.530Z,997.98
2018-04-13T00:54:47.503Z,997.98
2018-04-13T00:55:47.503Z,998.00
2018-04-13T00:56:47.446Z,997.99
2018-04-13T00:57:47.415Z,998.02
2018-04-13T00:58:47.395Z,998.02
2018-04-13T00:59:47.371Z,997.99
2018-04-13T01:00:47.339Z,998.03
2018-04-13T01:01:47.314Z,998.05
2018-04-13T01:02:47.285Z,998.03
2018-04-13T01:03:47.254Z,998.03
2018-04-13T01:04:47.266Z,998.10
2018-04-13T01:05:48.187Z,998.09
2018-04-13T01:06:47.169Z,998.08
2018-04-13T01:07:47.144Z,998.10
2018-04-13T01:08:47.122Z,998.12
2018-04-13T01:09:47.077Z,998.12
2018-04-13T01:10:47.102Z,998.09
2018-04-13T01:11:47.037Z,998.10
2018-04-13T01:12:46.995Z,998.13
2018-04-13T01:13:46.991Z,998.17
2018-04-13T01:14:46.949Z,998.19
2018-04-13T01:15:46.917Z,998.20
2018-04-13T01:16:46.889Z,998.19
2018-04-13T01:17:46.857Z,998.17
2018-04-13T01:18:46.846Z,998.20
2018-04-13T01:19:46.807Z,998.17
2018-04-13T01:20:46.771Z,998.23
2018-04-13T01:21:46.797Z,998.17
2018-04-13T01:22:46.781Z,998.21
2018-04-13T01:23:46.698Z,998.21
2018-04-13T01:24:46.682Z,998.25
2018-04-13T01:25:46.638Z,998.20
2018-04-13T01:26:46.596Z,998.23
2018-04-13T01:27:46.575Z,998.24
2018-04-13T01:28:46.544Z,998.25
2018-04-13T01:29:46.515Z,998.21
2018-04-13T01:30:46.514Z,998.23
2018-04-13T01:31:46.479Z,998.24
2018-04-13T01:32:46.439Z,998.25
2018-04-13T01:33:46.405Z,998.23
2018-04-13T01:34:46.381Z,998.22
2018-04-13T01:35:46.349Z,998.24
2018-04-13T01:36:46.335Z,998.22
2018-04-13T01:37:46.300Z,998.21
2018-04-13T01:38:46.261Z,998.20
2018-04-13T01:39:46.243Z,998.21
2018-04-13T01:40:46.205Z,998.24
2018-04-13T01:41:46.189Z,998.18
2018-04-13T01:42:46.156Z,998.20
2018-04-13T01:43:46.118Z,998.18
2018-04-13T01:44:46.086Z,998.20
2018-04-13T01:45:46.077Z,998.23
2018-04-13T01:46:46.037Z,998.23
2018-04-13T01:47:46.016Z,998.24
2018-04-13T01:48:45.985Z,998.25
2018-04-13T01:49:45.950Z,998.24
2018-04-13T01:50:45.931Z,998.26
2018-04-13T01:51:45.896Z,998.26
2018-04-13T01:52:45.872Z,998.30
2018-04-13T01:53:45.895Z,998.31
2018-04-13T01:54:45.818Z,998.32
2018-04-13T01:55:45.792Z,998.32
2018-04-13T01:56:45.767Z,998.32
2018-04-13T01:57:45.762Z,998.27
2018-04-13T01:58:45.700Z,998.28
2018-04-13T01:59:45.689Z,998.25
2018-04-13T02:00:45.653Z,998.29
2018-04-13T02:01:45.621Z,998.27
2018-04-13T02:02:45.601Z,998.23
2018-04-13T02:03:45.564Z,998.25
2018-04-13T02:04:45.526Z,998.25
2018-04-13T02:05:45.506Z,998.23
2018-04-13T02:06:45.471Z,998.21
2018-04-13T02:07:45.454Z,998.25
2018-04-13T02:08:45.406Z,998.26
2018-04-13T02:09:45.386Z,998.26
2018-04-13T02:10:45.358Z,998.27
2018-04-13T02:11:45.361Z,998.27
2018-04-13T02:12:45.297Z,998.22
2018-04-13T02:13:45.277Z,998.21
2018-04-13T02:14:45.268Z,998.22
2018-04-13T02:15:45.214Z,998.20
2018-04-13T02:16:45.186Z,998.23
2018-04-13T02:17:45.160Z,998.19
2018-04-13T02:18:45.127Z,998.19
2018-04-13T02:19:45.099Z,998.23
2018-04-13T02:20:45.096Z,998.21
2018-04-13T02:21:45.037Z,998.17
2018-04-13T02:22:45.015Z,998.19
2018-04-13T02:23:44.980Z,998.21
2018-04-13T02:24:44.954Z,998.20
2018-04-13T02:25:44.939Z,998.22
2018-04-13T02:26:44.900Z,998.22
2018-04-13T02:27:44.873Z,998.22
2018-04-13T02:28:44.852Z,998.25
2018-04-13T02:29:44.824Z,998.27
2018-04-13T02:30:44.785Z,998.28
2018-04-13T02:31:44.756Z,998.27
2018-04-13T02:32:44.739Z,998.25
2018-04-13T02:33:44.700Z,998.27
2018-04-13T02:34:44.691Z,998.26
2018-04-13T02:35:44.649Z,998.27
2018-04-13T02:36:44.612Z,998.25
2018-04-13T02:37:44.579Z,998.25
2018-04-13T02:38:44.554Z,998.24
2018-04-13T02:39:44.528Z,998.26
2018-04-13T02:40:44.502Z,998.23
2018-04-13T02:41:44.473Z,998.22
2018-04-13T02:42:44.439Z,998.24
2018-04-13T02:43:44.418Z,998.24
2018-04-13T02:44:44.384Z,998.23
2018-04-13T02:45:44.363Z,998.24
2018-04-13T02:46:44.334Z,998.24
2018-04-13T02:47:44.305Z,998.25
2018-04-13T02:48:44.273Z,998.24
2018-04-13T02:49:44.264Z,998.28
2018-04-13T02:50:44.217Z,998.27
2018-04-13T02:51:44.178Z,998.30
2018-04-13T02:52:44.171Z,998.33
2018-04-13T02:53:44.130Z,998.34
2018-04-13T02:54:44.095Z,998.34
2018-04-13T02:55:44.100Z,998.32
2018-04-13T02:56:44.035Z,998.35
2018-04-13T02:57:44.005Z,998.32
2018-04-13T02:58:43.983Z,998.31
2018-04-13T02:59:43.967Z,998.35
2018-04-13T03:00:44.709Z,998.30
2018-04-13T03:01:44.690Z,998.31
2018-04-13T03:02:43.891Z,998.34
2018-04-13T03:03:43.837Z,998.37
2018-04-13T03:04:43.859Z,998.36
2018-04-13T03:05:43.811Z,998.32
2018-04-13T03:06:43.768Z,998.31
2018-04-13T03:07:43.721Z,998.31
2018-04-13T03:08:43.693Z,998.33
2018-04-13T03:09:43.658Z,998.30
2018-04-13T03:10:43.628Z,998.36
2018-04-13T03:11:43.612Z,998.36
2018-04-13T03:12:44.568Z,998.39
2018-04-13T03:13:43.550Z,998.39
2018-04-13T03:14:43.511Z,998.38
2018-04-13T03:15:44.194Z,998.38
2018-04-13T03:16:43.550Z,998.36
2018-04-13T03:17:43.431Z,998.37
2018-04-13T03:18:43.409Z,998.37
2018-04-13T03:19:43.443Z,998.34
2018-04-13T03:20:43.344Z,998.33
2018-04-13T03:21:43.323Z,998.34
2018-04-13T03:22:43.295Z,998.35
2018-04-13T03:23:43.261Z,998.39
2018-04-13T03:24:43.254Z,998.37
2018-04-13T03:25:43.204Z,998.34
2018-04-13T03:26:43.169Z,998.37
2018-04-13T03:27:43.199Z,998.38
2018-04-13T03:28:43.102Z,998.37
2018-04-13T03:29:43.087Z,998.38
2018-04-13T03:30:43.089Z,998.40
2018-04-13T03:31:43.022Z,998.32
2018-04-13T03:32:42.994Z,998.35
2018-04-13T03:33:42.981Z,998.38
2018-04-13T03:34:42.937Z,998.38
2018-04-13T03:35:42.916Z,998.40
2018-04-13T03:36:42.889Z,998.43
2018-04-13T03:37:42.845Z,998.47
2018-04-13T03:38:42.814Z,998.47
2018-04-13T03:39:42.799Z,998.50
2018-04-13T03:40:42.758Z,998.55
2018-04-13T03:41:42.730Z,998.56
2018-04-13T03:42:42.703Z,998.58
2018-04-13T03:43:42.670Z,998.57
2018-04-13T03:44:42.643Z,998.58
2018-04-13T03:45:42.651Z,998.59
2018-04-13T03:46:42.580Z,998.60
2018-04-13T03:47:42.577Z,998.62
2018-04-13T03:48:42.560Z,998.58
2018-04-13T03:49:42.503Z,998.59
2018-04-13T03:50:42.481Z,998.60
2018-04-13T03:51:42.465Z,998.57
2018-04-13T03:52:42.420Z,998.59
2018-04-13T03:53:42.379Z,998.58
2018-04-13T03:54:43.201Z,998.65
2018-04-13T03:55:42.329Z,998.65
2018-04-13T03:56:42.293Z,998.62
2018-04-13T03:57:42.273Z,998.64
2018-04-13T03:58:42.231Z,998.60
2018-04-13T03:59:42.213Z,998.61
2018-04-13T04:00:42.175Z,998.63
2018-04-13T04:01:42.150Z,998.63
2018-04-13T04:02:42.117Z,998.63
2018-04-13T04:03:42.091Z,998.65
2018-04-13T04:04:42.072Z,998.63
2018-04-13T04:05:42.029Z,998.66
2018-04-13T04:06:42.002Z,998.69
2018-04-13T04:07:41.981Z,998.68
2018-04-13T04:08:41.969Z,998.69
2018-04-13T04:09:41.915Z,998.71
2018-04-13T04:10:41.883Z,998.68
2018-04-13T04:11:41.860Z,998.72
2018-04-13T04:12:41.832Z,998.72
2018-04-13T04:13:41.811Z,998.75
2018-04-13T04:14:41.771Z,998.72
2018-04-13T04:15:41.740Z,998.80
2018-04-13T04:16:41.714Z,998.80
2018-04-13T04:17:41.685Z,998.79
2018-04-13T04:18:41.648Z,998.79
2018-04-13T04:19:41.620Z,998.85
2018-04-13T04:20:41.590Z,998.81
2018-04-13T04:21:41.560Z,998.84
2018-04-13T04:22:41.529Z,998.86
2018-04-13T04:23:41.509Z,998.85
2018-04-13T04:24:41.480Z,998.86
2018-04-13T04:25:41.439Z,998.86
2018-04-13T04:26:41.423Z,998.88
2018-04-13T04:27:41.439Z,998.88
2018-04-13T04:28:41.356Z,998.88
2018-04-13T04:29:41.342Z,998.93
2018-04-13T04:30:41.317Z,998.95
2018-04-13T04:31:41.277Z,998.95
2018-04-13T04:32:41.236Z,998.93
2018-04-13T04:33:41.218Z,998.98
2018-04-13T04:34:41.185Z,999.01
2018-04-13T04:35:41.162Z,998.98
2018-04-13T04:36:42.116Z,998.98
2018-04-13T04:37:41.093Z,999.01
2018-04-13T04:38:41.070Z,999.02
2018-04-13T04:39:41.035Z,999.01
2018-04-13T04:40:41.004Z,999.03
2018-04-13T04:41:40.974Z,999.01
2018-04-13T04:42:40.941Z,999.00
2018-04-13T04:43:40.928Z,999.00
2018-04-13T04:44:40.898Z,998.98
2018-04-13T04:45:40.880Z,999.00
2018-04-13T04:46:40.843Z,998.95
2018-04-13T04:47:40.838Z,998.95
2018-04-13T04:48:40.786Z,998.98
2018-04-13T04:49:40.747Z,999.01
2018-04-13T04:50:40.710Z,999.00
2018-04-13T04:51:40.687Z,999.02
2018-04-13T04:52:40.661Z,999.03
2018-04-13T04:53:40.619Z,999.10
2018-04-13T04:54:40.595Z,999.12
2018-04-13T04:55:40.581Z,999.15
2018-04-13T04:56:40.538Z,999.14
2018-04-13T04:57:40.510Z,999.21
2018-04-13T04:58:40.590Z,999.21
2018-04-13T04:59:40.594Z,999.24
2018-04-13T05:00:40.482Z,999.26
2018-04-13T05:01:40.496Z,999.29
2018-04-13T05:02:40.423Z,999.29
2018-04-13T05:03:40.410Z,999.32
2018-04-13T05:04:40.319Z,999.33
2018-04-13T05:05:40.364Z,999.32
2018-04-13T05:06:40.308Z,999.37
2018-04-13T05:07:40.212Z,999.37
2018-04-13T05:08:40.197Z,999.42
2018-04-13T05:09:40.154Z,999.45
2018-04-13T05:10:40.131Z,999.46
2018-04-13T05:11:40.111Z,999.47
2018-04-13T05:12:40.102Z,999.44
2018-04-13T05:13:40.043Z,999.51
2018-04-13T05:14:40.057Z,999.51
2018-04-13T05:15:40.016Z,999.53
2018-04-13T05:16:40.010Z,999.54
2018-04-13T05:17:39.955Z,999.57
2018-04-13T05:18:39.913Z,999.63
2018-04-13T05:19:39.976Z,999.61
2018-04-13T05:20:39.850Z,999.62
2018-04-13T05:21:39.826Z,999.65
2018-04-13T05:22:39.851Z,999.69
2018-04-13T05:23:39.845Z,999.70
2018-04-13T05:24:39.862Z,999.71
2018-04-13T05:25:39.757Z,999.79
2018-04-13T05:26:39.753Z,999.79
2018-04-13T05:27:39.701Z,999.84
2018-04-13T05:28:40.283Z,999.82
2018-04-13T05:29:39.659Z,999.87
2018-04-13T05:30:39.614Z,999.93
2018-04-13T05:31:39.584Z,999.96
2018-04-13T05:32:40.563Z,999.97
2018-04-13T05:33:39.514Z,1000.05
2018-04-13T05:34:39.492Z,1000.09
2018-04-13T05:35:39.465Z,1000.08
2018-04-13T05:36:39.434Z,1000.12
2018-04-13T05:37:42.256Z,1000.08
2018-04-13T05:38:39.341Z,1000.10
2018-04-13T05:39:39.351Z,1000.09
2018-04-13T05:40:39.362Z,1000.13
2018-04-13T05:41:39.276Z,1000.16
2018-04-13T05:42:39.321Z,1000.14
2018-04-13T05:43:39.286Z,1000.21
2018-04-13T05:44:39.191Z,1000.22
2018-04-13T05:45:40.181Z,1000.23
2018-04-13T05:46:39.145Z,1000.26
2018-04-13T05:47:39.242Z,1000.25
2018-04-13T05:48:39.121Z,1000.31
2018-04-13T05:49:38.999Z,1000.28
2018-04-13T05:50:39.054Z,1000.25
2018-04-13T05:51:39.016Z,1000.25
2018-04-13T05:52:39.002Z,1000.23
2018-04-13T05:53:38.972Z,1000.22
2018-04-13T05:54:38.968Z,1000.21
2018-04-13T05:55:38.937Z,1000.23
2018-04-13T05:56:38.951Z,1000.24
2018-04-13T05:57:38.772Z,1000.27
2018-04-13T05:58:38.730Z,1000.22
2018-04-13T05:59:38.707Z,1000.24
2018-04-13T06:00:38.679Z,1000.23
2018-04-13T06:01:38.654Z,1000.26
2018-04-13T06:02:38.618Z,1000.26
2018-04-13T06:03:38.587Z,1000.28
2018-04-13T06:04:38.558Z,1000.30
2018-04-13T06:05:38.531Z,1000.29
2018-04-13T06:06:38.547Z,1000.31
2018-04-13T06:07:38.471Z,1000.36
2018-04-13T06:08:38.454Z,1000.35
2018-04-13T06:09:38.425Z,1000.37
2018-04-13T06:10:38.398Z,1000.39
2018-04-13T06:11:38.361Z,1000.40
2018-04-13T06:12:38.336Z,1000.43
2018-04-13T06:13:38.308Z,1000.43
2018-04-13T06:14:38.447Z,1000.44
2018-04-13T06:15:38.239Z,1000.41
2018-04-13T06:16:38.210Z,1000.45
2018-04-13T06:17:38.210Z,1000.40
2018-04-13T06:18:38.152Z,1000.39
2018-04-13T06:19:38.147Z,1000.41
2018-04-13T06:20:38.117Z,1000.40
2018-04-13T06:21:38.072Z,1000.39
2018-04-13T06:22:38.044Z,1000.39
2018-04-13T06:23:38.021Z,1000.35
2018-04-13T06:24:37.989Z,1000.39
2018-04-13T06:25:37.952Z,1000.42
2018-04-13T06:26:37.937Z,1000.44
2018-04-13T06:27:37.950Z,1000.46
2018-04-13T06:28:37.900Z,1000.44
2018-04-13T06:29:37.875Z,1000.47
2018-04-13T06:30:37.830Z,1000.46
2018-04-13T06:31:37.788Z,1000.49
2018-04-13T06:32:37.764Z,1000.49
2018-04-13T06:33:37.740Z,1000.49
2018-04-13T06:34:37.698Z,1000.49
2018-04-13T06:35:37.695Z,1000.50
2018-04-13T06:36:37.651Z,1000.48
2018-04-13T06:37:37.621Z,1000.52
2018-04-13T06:38:37.596Z,1000.54
2018-04-13T06:39:37.561Z,1000.52
2018-04-13T06:40:37.533Z,1000.53
2018-04-13T06:41:54.466Z,1000.52
2018-04-13T06:43:42.108Z,1000.54
2018-04-13T06:44:42.205Z,1000.51
2018-04-13T06:46:49.638Z,1000.55
2018-04-13T06:47:48.396Z,1000.56
2018-04-13T06:48:47.993Z,1000.59
2018-04-13T06:49:47.715Z,1000.58
2018-04-13T06:50:47.625Z,1000.62
2018-04-13T06:51:47.547Z,1000.64
2018-04-13T06:52:47.529Z,1000.64
2018-04-13T06:53:47.500Z,1000.67
2018-04-13T06:54:47.511Z,1000.69
2018-04-13T06:55:47.437Z,1000.65
2018-04-13T06:56:48.386Z,1000.66
2018-04-13T06:57:47.380Z,1000.69
2018-04-13T06:58:47.357Z,1000.68
2018-04-13T06:59:47.326Z,1000.66
2018-04-13T07:00:47.307Z,1000.66
2018-04-13T07:01:47.268Z,1000.63
2018-04-13T07:02:47.250Z,1000.61
2018-04-13T07:03:47.224Z,1000.59
2018-04-13T07:04:47.199Z,1000.57
2018-04-13T07:05:47.162Z,1000.59
2018-04-13T07:06:47.135Z,1000.62
2018-04-13T07:07:47.117Z,1000.62
2018-04-13T07:08:47.073Z,1000.60
2018-04-13T07:09:47.074Z,1000.63
2018-04-13T07:10:47.027Z,1000.67
2018-04-13T07:11:46.991Z,1000.73
2018-04-13T07:12:46.971Z,1000.68
2018-04-13T07:13:46.939Z,1000.72
2018-04-13T07:14:46.931Z,1000.75
2018-04-13T07:15:46.896Z,1000.78
2018-04-13T07:16:46.871Z,1000.79
2018-04-13T07:17:46.838Z,1000.77
2018-04-13T07:18:46.812Z,1000.78
2018-04-13T07:19:46.781Z,1000.77
2018-04-13T07:20:46.752Z,1000.79
2018-04-13T07:21:46.727Z,1000.81
2018-04-13T07:22:46.698Z,1000.79
2018-04-13T07:23:46.675Z,1000.86
2018-04-13T07:24:46.646Z,1000.89
2018-04-13T07:25:46.613Z,1000.91
2018-04-13T07:26:46.596Z,1000.90
2018-04-13T07:27:46.566Z,1000.89
2018-04-13T07:28:46.542Z,1000.95
2018-04-13T07:29:46.547Z,1000.89
2018-04-13T07:30:46.483Z,1000.86
2018-04-13T07:31:46.451Z,1000.82
2018-04-13T07:32:46.458Z,1000.83
2018-04-13T07:33:46.410Z,1000.83
2018-04-13T07:34:46.405Z,1000.80
2018-04-13T07:35:46.388Z,1000.78
2018-04-13T07:36:46.332Z,1000.73
2018-04-13T07:37:46.303Z,1000.71
2018-04-13T07:38:46.325Z,1000.70
2018-04-13T07:39:46.257Z,1000.71
2018-04-13T07:40:46.225Z,1000.71
2018-04-13T07:41:46.203Z,1000.75
2018-04-13T07:42:46.765Z,1000.73
2018-04-13T07:43:46.149Z,1000.74
2018-04-13T07:44:46.198Z,1000.77
2018-04-13T07:45:46.089Z,1000.79
2018-04-13T07:46:46.068Z,1000.81
2018-04-13T07:47:46.038Z,1000.81
2018-04-13T07:48:46.002Z,1000.80
2018-04-13T07:49:45.986Z,1000.82
2018-04-13T07:50:45.961Z,1000.82
2018-04-13T07:51:45.933Z,1000.89
2018-04-13T07:52:45.906Z,1000.89
2018-04-13T07:53:45.881Z,1000.93
2018-04-13T07:54:45.844Z,1000.94
2018-04-13T07:55:45.828Z,1000.99
2018-04-13T07:56:45.802Z,1000.97
2018-04-13T07:57:45.767Z,1001.01
2018-04-13T07:58:45.750Z,1000.95
2018-04-13T07:59:45.718Z,1000.96
2018-04-13T08:00:46.319Z,1000.93
2018-04-13T08:01:45.679Z,1000.89
2018-04-13T08:02:45.729Z,1000.87
2018-04-13T08:03:45.632Z,1000.87
2018-04-13T08:04:45.595Z,1000.84
2018-04-13T08:05:45.553Z,1000.85
2018-04-13T08:06:45.536Z,1000.85
2018-04-13T08:07:45.509Z,1000.84
2018-04-13T08:08:45.476Z,1000.82
2018-04-13T08:09:45.450Z,1000.87
2018-04-13T08:10:45.438Z,1000.86
2018-04-13T08:11:45.421Z,1000.85
2018-04-13T08:12:45.433Z,1000.86
2018-04-13T08:13:45.371Z,1000.86
2018-04-13T08:14:45.388Z,1000.85
2018-04-13T08:15:45.296Z,1000.86
2018-04-13T08:16:45.283Z,1000.86
2018-04-13T08:17:45.255Z,1000.90
2018-04-13T08:18:45.297Z,1000.90
2018-04-13T08:19:45.199Z,1000.90
2018-04-13T08:20:45.163Z,1000.90
2018-04-13T08:21:45.166Z,1000.93
2018-04-13T08:22:45.130Z,1000.93
2018-04-13T08:23:45.102Z,1000.92
2018-04-13T08:24:45.092Z,1000.93
2018-04-13T08:25:45.034Z,1000.98
2018-04-13T08:26:45.007Z,1001.02
2018-04-13T08:27:44.987Z,1001.00
2018-04-13T08:28:44.960Z,1001.02
2018-04-13T08:29:44.995Z,1001.01
2018-04-13T08:30:44.928Z,1001.02
2018-04-13T08:31:44.915Z,1001.09
2018-04-13T08:32:44.856Z,1001.07
2018-04-13T08:33:44.862Z,1001.07
2018-04-13T08:34:44.800Z,1001.10
2018-04-13T08:35:44.816Z,1001.13
2018-04-13T08:36:44.785Z,1001.15
2018-04-13T08:37:44.731Z,1001.16
2018-04-13T08:38:44.940Z,1001.16
2018-04-13T08:39:44.671Z,1001.11
2018-04-13T08:40:44.658Z,1001.09
2018-04-13T08:41:44.645Z,1001.12
2018-04-13T08:42:44.613Z,1001.12
2018-04-13T08:43:44.577Z,1001.09
2018-04-13T08:44:44.542Z,1001.12
2018-04-13T08:45:44.585Z,1001.10
2018-04-13T08:46:44.489Z,1001.13
2018-04-13T08:47:44.461Z,1001.16
2018-04-13T08:48:44.516Z,1001.17
2018-04-13T08:49:44.431Z,1001.17
2018-04-13T08:50:44.387Z,1001.17
2018-04-13T08:51:44.369Z,1001.18
2018-04-13T08:52:44.338Z,1001.22
2018-04-13T08:53:44.313Z,1001.23
2018-04-13T08:54:44.305Z,1001.25
2018-04-13T08:55:44.400Z,1001.25
2018-04-13T08:56:44.360Z,1001.30
2018-04-13T08:57:44.385Z,1001.31
2018-04-13T08:58:44.194Z,1001.32
2018-04-13T08:59:44.191Z,1001.37
2018-04-13T09:00:44.340Z,1001.37
2018-04-13T09:01:44.106Z,1001.41
2018-04-13T09:02:44.197Z,1001.42
2018-04-13T09:03:44.124Z,1001.47
2018-04-13T09:04:44.206Z,1001.51
2018-04-13T09:05:44.075Z,1001.55
2018-04-13T09:06:44.090Z,1001.55
2018-04-13T09:07:44.062Z,1001.56
2018-04-13T09:08:44.016Z,1001.63
2018-04-13T09:09:43.903Z,1001.66
2018-04-13T09:10:43.956Z,1001.68
2018-04-13T09:11:43.944Z,1001.68
2018-04-13T09:12:43.825Z,1001.71
2018-04-13T09:13:43.860Z,1001.73
2018-04-13T09:14:43.998Z,1001.69
2018-04-13T09:15:43.755Z,1001.69
2018-04-13T09:16:43.759Z,1001.65
2018-04-13T09:17:43.761Z,1001.62
2018-04-13T09:18:43.678Z,1001.66
2018-04-13T09:19:43.665Z,1001.62
2018-04-13T09:20:43.780Z,1001.67
2018-04-13T09:21:43.598Z,1001.60
2018-04-13T09:22:43.662Z,1001.62
2018-04-13T09:23:43.604Z,1001.60
2018-04-13T09:24:43.533Z,1001.62
2018-04-13T09:25:43.572Z,1001.65
2018-04-13T09:26:43.610Z,1001.66
2018-04-13T09:27:43.542Z,1001.72
2018-04-13T09:28:43.429Z,1001.70
2018-04-13T09:29:43.433Z,1001.70
2018-04-13T09:30:43.379Z,1001.71
2018-04-13T09:31:43.427Z,1001.70
2018-04-13T09:32:43.406Z,1001.72
2018-04-13T09:33:43.295Z,1001.77
2018-04-13T09:34:45.439Z,1001.81
2018-04-13T09:35:43.261Z,1001.79
2018-04-13T09:36:43.276Z,1001.80
2018-04-13T09:37:43.298Z,1001.83
2018-04-13T09:38:43.184Z,1001.88
2018-04-13T09:39:43.280Z,1001.82
2018-04-13T09:40:43.215Z,1001.83
2018-04-13T09:41:43.110Z,1001.84
2018-04-13T09:42:43.197Z,1001.82
2018-04-13T09:43:43.128Z,1001.86
2018-04-13T09:44:43.044Z,1001.87
2018-04-13T09:45:43.051Z,1001.84
2018-04-13T09:46:43.021Z,1001.87
2018-04-13T09:47:42.971Z,1001.86
2018-04-13T09:48:42.982Z,1001.82
2018-04-13T09:49:43.066Z,1001.82
2018-04-13T09:50:42.922Z,1001.80
2018-04-13T09:51:42.890Z,1001.81
2018-04-13T09:52:42.839Z,1001.83
2018-04-13T09:53:42.904Z,1001.79
2018-04-13T09:54:42.966Z,1001.82
2018-04-13T09:55:42.759Z,1001.84
2018-04-13T09:56:42.758Z,1001.79
2018-04-13T09:57:42.848Z,1001.80
2018-04-13T09:58:42.690Z,1001.80
2018-04-13T09:59:42.741Z,1001.76
2018-04-13T10:00:42.640Z,1001.80
2018-04-13T10:01:42.640Z,1001.77
2018-04-13T10:02:42.585Z,1001.75
2018-04-13T10:03:42.643Z,1001.78
2018-04-13T10:04:42.712Z,1001.78
2018-04-13T10:05:42.602Z,1001.77
2018-04-13T10:06:42.614Z,1001.75
2018-04-13T10:07:42.552Z,1001.78
2018-04-13T10:08:42.508Z,1001.77
2018-04-13T10:09:42.587Z,1001.81
2018-04-13T10:10:42.556Z,1001.80
2018-04-13T10:11:42.462Z,1001.82
2018-04-13T10:12:42.555Z,1001.77
2018-04-13T10:13:42.393Z,1001.78
2018-04-13T10:14:42.350Z,1001.77
2018-04-13T10:15:42.354Z,1001.82
2018-04-13T10:16:42.322Z,1001.85
2018-04-13T10:17:42.286Z,1001.83
2018-04-13T10:18:42.231Z,1001.84
2018-04-13T10:19:42.171Z,1001.80
2018-04-13T10:20:42.214Z,1001.83
2018-04-13T10:21:42.255Z,1001.88
2018-04-13T10:22:42.101Z,1001.90
2018-04-13T10:23:42.131Z,1001.91
2018-04-13T10:24:42.112Z,1001.94
2018-04-13T10:25:42.043Z,1002.00
2018-04-13T10:26:42.014Z,1002.00
2018-04-13T10:27:42.040Z,1002.00
2018-04-13T10:28:42.085Z,1002.03
2018-04-13T10:29:42.005Z,1002.06
2018-04-13T10:30:41.908Z,1002.06
2018-04-13T10:31:41.924Z,1002.00
2018-04-13T10:32:41.975Z,1002.05
2018-04-13T10:33:41.822Z,1001.99
2018-04-13T10:34:41.789Z,1002.06
2018-04-13T10:35:41.832Z,1002.07
2018-04-13T10:36:41.763Z,1002.07
2018-04-13T10:37:41.828Z,1002.09
2018-04-13T10:38:41.766Z,1002.09
2018-04-13T10:39:41.665Z,1002.11
2018-04-13T10:40:42.333Z,1002.13
2018-04-13T10:41:41.615Z,1002.16
2018-04-13T10:42:41.757Z,1002.15
2018-04-13T10:43:41.644Z,1002.18
2018-04-13T10:44:41.544Z,1002.16
2018-04-13T10:45:41.560Z,1002.19
2018-04-13T10:46:41.576Z,1002.18
2018-04-13T10:47:41.581Z,1002.21
2018-04-13T10:48:41.511Z,1002.22
2018-04-13T10:49:41.425Z,1002.22
2018-04-13T10:50:41.471Z,1002.25
2018-04-13T10:51:41.418Z,1002.19
2018-04-13T10:52:41.336Z,1002.23
2018-04-13T10:53:41.378Z,1002.19
2018-04-13T10:54:41.353Z,1002.19
2018-04-13T10:55:41.269Z,1002.18
2018-04-13T10:56:41.255Z,1002.24
2018-04-13T10:57:41.286Z,1002.19
2018-04-13T10:58:41.244Z,1002.26
2018-04-13T10:59:41.185Z,1002.24
2018-04-13T11:00:41.187Z,1002.26
2018-04-13T11:01:41.124Z,1002.23
2018-04-13T11:02:41.201Z,1002.33
2018-04-13T11:03:41.100Z,1002.31
2018-04-13T11:04:41.184Z,1002.34
2018-04-13T11:05:41.085Z,1002.38
2018-04-13T11:06:40.996Z,1002.36
2018-04-13T11:07:41.044Z,1002.42
2018-04-13T11:08:41.023Z,1002.44
2018-04-13T11:09:40.918Z,1002.46
2018-04-13T11:10:41.054Z,1002.50
2018-04-13T11:11:40.946Z,1002.49
2018-04-13T11:12:41.009Z,1002.50
2018-04-13T11:13:40.995Z,1002.54
2018-04-13T11:14:40.789Z,1002.51
2018-04-13T11:15:40.898Z,1002.56
2018-04-13T11:16:40.823Z,1002.60
2018-04-13T11:17:40.712Z,1002.57
2018-04-13T11:18:40.757Z,1002.64
2018-04-13T11:19:40.763Z,1002.63
2018-04-13T11:20:40.688Z,1002.63
2018-04-13T11:21:40.631Z,1002.64
2018-04-13T11:22:40.742Z,1002.69
2018-04-13T11:23:40.608Z,1002.65
2018-04-13T11:24:40.537Z,1002.65
2018-04-13T11:25:40.663Z,1002.69
2018-04-13T11:26:40.619Z,1002.67
2018-04-13T11:27:40.461Z,1002.70
2018-04-13T11:28:40.457Z,1002.72
2018-04-13T11:29:40.520Z,1002.75
2018-04-13T11:30:40.391Z,1002.71
2018-04-13T11:31:40.461Z,1002.68
2018-04-13T11:32:40.403Z,1002.70
2018-04-13T11:33:40.329Z,1002.70
2018-04-13T11:34:40.342Z,1002.73
2018-04-13T11:35:40.385Z,1002.77
2018-04-13T11:36:40.267Z,1002.76
2018-04-13T11:37:40.254Z,1002.79
2018-04-13T11:38:40.276Z,1002.81
2018-04-13T11:39:40.165Z,1002.77
2018-04-13T11:40:40.212Z,1002.75
2018-04-13T11:41:40.228Z,1002.76
2018-04-13T11:42:40.092Z,1002.76
2018-04-13T11:43:40.171Z,1002.77
2018-04-13T11:44:40.121Z,1002.76
2018-04-13T11:45:40.029Z,1002.79
2018-04-13T11:46:40.117Z,1002.74
2018-04-13T11:47:40.032Z,1002.75
2018-04-13T11:48:39.998Z,1002.79
2018-04-13T11:49:39.986Z,1002.81
2018-04-13T11:50:39.902Z,1002.79
2018-04-13T11:51:39.929Z,1002.82
2018-04-13T11:52:39.983Z,1002.82
2018-04-13T11:53:39.839Z,1002.85
2018-04-13T11:54:39.867Z,1002.88
2018-04-13T11:55:39.792Z,1002.86
2018-04-13T11:56:39.760Z,1002.85
2018-04-13T11:57:39.805Z,1002.82
2018-04-13T11:58:39.822Z,1002.85
2018-04-13T11:59:39.747Z,1002.86
2018-04-13T12:00:39.694Z,1002.83
2018-04-13T12:01:39.689Z,1002.84
2018-04-13T12:02:39.652Z,1002.83
2018-04-13T12:03:39.627Z,1002.83
2018-04-13T12:04:39.690Z,1002.84
2018-04-13T12:05:39.607Z,1002.84
2018-04-13T12:06:39.560Z,1002.90
2018-04-13T12:07:39.669Z,1002.94
2018-04-13T12:08:39.511Z,1002.96
2018-04-13T12:09:39.546Z,1002.98
2018-04-13T12:10:39.559Z,1002.95
2018-04-13T12:11:39.441Z,1002.98
2018-04-13T12:12:39.451Z,1002.99
2018-04-13T12:13:39.416Z,1002.97
2018-04-13T12:14:39.342Z,1003.01
2018-04-13T12:15:39.416Z,1002.98
2018-04-13T12:16:39.287Z,1002.97
2018-04-13T12:17:39.306Z,1003.00